Time;durP1;ratioP1;P1;durP2;ratioP2;P2;SDS_P1;SDS_P2;PMS_P1;PMS_P2;Temp;Humidity;BMP_temperature;BMP_pressure;BME280_temperature;BME280_humidity;BME280_pressure;Samples;Min_cycle;Max_cycle;Signal;HPM_P1;HPM_P2
2021/05/09 00:01:43;;;;;;;8.38;3.58;;;;;;;9.62;79.32;100547.00;5073652;28;20368;-72
2021/05/09 00:04:10;;;;;;;5.47;3.65;;;;;;;9.63;79.87;100546.00;5073630;28;20028;-72
2021/05/09 00:06:36;;;;;;;7.28;4.05;;;;;;;9.63;79.75;100544.16;5091416;28;20514;-73
2021/05/09 00:09:02;;;;;;;6.65;3.33;;;;;;;9.64;80.03;100545.88;5092119;28;20044;-73
2021/05/09 00:11:28;;;;;;;6.43;3.22;;;;;;;9.65;79.77;100550.31;5091438;28;20445;-73
2021/05/09 00:13:54;;;;;;;4.68;3.40;;;;;;;9.65;80.48;100544.91;5073128;28;20180;-71
2021/05/09 00:16:20;;;;;;;5.35;3.33;;;;;;;9.68;80.17;100551.94;5091532;28;20055;-73
2021/05/09 00:18:46;;;;;;;9.15;3.70;;;;;;;9.69;80.08;100542.81;5091463;28;20044;-73
2021/05/09 00:21:13;;;;;;;5.35;3.38;;;;;;;9.71;80.68;100540.81;5091637;28;20042;-73
2021/05/09 00:23:39;;;;;;;9.40;3.53;;;;;;;9.70;81.32;100528.25;5091671;28;20052;-73
2021/05/09 00:26:05;;;;;;;7.88;3.70;;;;;;;9.69;81.32;100527.41;5091050;28;20052;-72
2021/05/09 00:28:30;;;;;;;7.70;3.72;;;;;;;9.67;81.60;100525.81;5073053;28;20036;-73
2021/05/09 00:30:56;;;;;;;5.65;3.22;;;;;;;9.70;81.00;100528.25;5072822;28;20033;-73
2021/05/09 00:33:22;;;;;;;5.38;3.45;;;;;;;9.71;80.78;100530.88;5091155;28;20353;-72
2021/05/09 00:35:48;;;;;;;6.15;3.13;;;;;;;9.73;80.65;100522.59;5091257;28;20193;-73
2021/05/09 00:38:15;;;;;;;6.70;3.55;;;;;;;9.75;80.74;100520.63;5091232;28;20514;-73
2021/05/09 00:40:41;;;;;;;7.10;3.40;;;;;;;9.75;80.63;100526.03;5091357;28;20056;-73
2021/05/09 00:43:07;;;;;;;6.57;3.30;;;;;;;9.76;80.83;100525.06;5090923;28;20052;-73
2021/05/09 00:45:33;;;;;;;5.63;3.13;;;;;;;9.75;82.49;100534.16;5090843;28;20063;-72
2021/05/09 00:47:59;;;;;;;4.88;3.42;;;;;;;9.73;82.35;100528.03;5091017;28;20044;-72
2021/05/09 00:50:26;;;;;;;7.15;3.40;;;;;;;9.75;82.80;100528.75;5091048;28;20048;-72
2021/05/09 00:52:54;;;;;;;5.63;3.38;;;;;;;9.74;82.75;100518.03;5073101;28;20385;-71
2021/05/09 00:55:23;;;;;;;5.97;3.10;;;;;;;9.75;83.08;100519.78;5090596;28;20151;-72
2021/05/09 00:57:49;;;;;;;5.45;3.47;;;;;;;9.74;83.43;100526.16;5091280;28;20051;-72
2021/05/09 01:00:17;;;;;;;6.03;3.60;;;;;;;9.75;83.76;100530.59;5073011;28;20048;-72
2021/05/09 01:02:45;;;;;;;5.53;4.00;;;;;;;9.75;83.75;100522.47;5057203;28;20545;-72
2021/05/09 01:05:13;;;;;;;7.63;3.40;;;;;;;9.75;83.94;100515.19;5057342;28;20044;-72
2021/05/09 01:07:40;;;;;;;7.15;3.85;;;;;;;9.74;84.20;100518.91;5092397;28;20064;-72
2021/05/09 01:10:08;;;;;;;9.38;3.42;;;;;;;9.75;84.95;100522.47;5092968;28;20040;-72
2021/05/09 01:12:35;;;;;;;6.70;2.97;;;;;;;9.74;85.65;100510.78;5072679;28;20147;-72
2021/05/09 01:15:03;;;;;;;5.07;3.17;;;;;;;9.74;85.69;100501.78;5072714;28;20094;-72
2021/05/09 01:17:30;;;;;;;6.93;3.17;;;;;;;9.73;86.06;100506.34;5072637;28;20066;-72
2021/05/09 01:20:00;;;;;;;5.40;2.92;;;;;;;9.74;87.09;100507.19;5090797;28;20046;-72
2021/05/09 01:22:28;;;;;;;5.80;3.60;;;;;;;9.74;86.95;100507.19;5072687;28;20047;-71
2021/05/09 01:24:54;;;;;;;11.43;4.03;;;;;;;9.75;86.73;100501.66;5090113;28;20048;-72
2021/05/09 01:27:20;;;;;;;9.77;3.30;;;;;;;9.74;87.76;100494.53;5090668;28;20047;-73
2021/05/09 01:29:46;;;;;;;7.50;3.67;;;;;;;9.73;87.87;100498.22;5072436;28;20071;-71
2021/05/09 01:32:13;;;;;;;6.50;3.72;;;;;;;9.74;87.86;100491.81;5090975;28;20044;-71
2021/05/09 01:34:38;;;;;;;5.93;3.17;;;;;;;9.74;88.02;100488.22;5094379;28;20438;-71
2021/05/09 01:37:06;;;;;;;5.18;3.17;;;;;;;9.75;88.35;100482.66;5076497;28;20055;-72
2021/05/09 01:39:32;;;;;;;6.68;3.17;;;;;;;9.77;88.34;100478.00;5094610;28;20108;-71
2021/05/09 01:42:01;;;;;;;8.20;3.15;;;;;;;9.78;88.37;100470.72;5094181;28;20098;-71
2021/05/09 01:44:28;;;;;;;4.70;3.08;;;;;;;9.78;89.08;100458.03;5076344;28;20456;-71
2021/05/09 01:46:53;;;;;;;8.27;3.47;;;;;;;9.79;89.43;100462.44;5076501;28;20056;-73
2021/05/09 01:49:19;;;;;;;5.15;3.03;;;;;;;9.79;89.16;100461.59;5094245;28;20137;-72
2021/05/09 01:51:46;;;;;;;4.45;2.63;;;;;;;9.81;89.42;100459.66;5076456;28;20071;-72
2021/05/09 01:54:13;;;;;;;5.82;3.08;;;;;;;9.83;89.61;100463.06;5075937;28;20048;-72
2021/05/09 01:56:40;;;;;;;7.60;3.38;;;;;;;9.83;89.62;100468.50;5076197;28;20111;-72
2021/05/09 01:59:07;;;;;;;4.70;3.40;;;;;;;9.82;89.69;100464.94;5059233;28;20052;-72
2021/05/09 02:01:38;;;;;;;5.55;3.10;;;;;;;9.84;89.79;100471.06;5075820;28;20411;-72
2021/05/09 02:04:22;;;;;;;5.82;3.55;;;;;;;9.83;90.30;100469.34;5076054;28;20052;-72
2021/05/09 02:06:49;;;;;;;4.93;3.50;;;;;;;9.83;90.27;100463.91;5075763;28;20548;-73
2021/05/09 02:09:16;;;;;;;6.72;3.30;;;;;;;9.83;90.66;100463.06;5076103;28;20047;-72
2021/05/09 02:11:43;;;;;;;7.53;3.40;;;;;;;9.82;90.78;100459.50;5093926;28;20499;-72
2021/05/09 02:14:44;;;;;;;6.40;3.30;;;;;;;9.82;90.86;100456.81;5082319;28;20075;-71
2021/05/09 02:17:11;;;;;;;5.50;3.28;;;;;;;9.83;91.36;100447.66;5075466;28;20044;-71
2021/05/09 02:19:41;;;;;;;5.50;3.35;;;;;;;9.84;90.94;100456.66;5075725;28;20059;-72
2021/05/09 02:22:11;;;;;;;7.22;3.35;;;;;;;9.85;90.99;100452.97;5075644;28;20044;-72
2021/05/09 02:24:38;;;;;;;6.18;3.35;;;;;;;9.86;91.29;100455.56;5093442;28;20492;-72
2021/05/09 02:27:04;;;;;;;6.43;3.30;;;;;;;9.88;91.21;100445.44;5093825;28;20495;-72
2021/05/09 02:29:31;;;;;;;5.75;3.22;;;;;;;9.88;91.49;100448.13;5075266;28;20438;-72
2021/05/09 02:31:57;;;;;;;6.45;3.05;;;;;;;9.89;91.71;100452.59;5075679;28;20119;-72
2021/05/09 02:34:29;;;;;;;4.88;2.95;;;;;;;9.89;91.85;100441.72;5075088;28;20070;-72
2021/05/09 02:36:55;;;;;;;5.07;3.13;;;;;;;9.93;91.84;100446.91;5093052;28;20530;-72
2021/05/09 02:39:21;;;;;;;5.30;3.00;;;;;;;9.91;92.27;100440.75;5093340;28;20137;-72
2021/05/09 02:41:48;;;;;;;6.75;3.53;;;;;;;9.93;92.04;100441.47;5093312;28;20048;-72
2021/05/09 02:44:15;;;;;;;5.70;3.13;;;;;;;9.94;92.09;100448.63;5074108;28;20043;-72
2021/05/09 02:46:43;;;;;;;5.00;3.15;;;;;;;9.95;92.58;100450.34;5092827;28;20047;-72
2021/05/09 02:49:09;;;;;;;5.68;3.40;;;;;;;9.94;93.09;100443.19;5093414;28;20077;-72
2021/05/09 02:51:35;;;;;;;6.20;3.33;;;;;;;9.94;93.19;100451.34;5093250;28;20043;-72
2021/05/09 02:54:02;;;;;;;5.20;3.15;;;;;;;9.96;93.14;100443.94;5093191;28;20109;-72
2021/05/09 02:56:29;;;;;;;4.70;3.10;;;;;;;9.95;93.61;100436.78;5074672;28;20052;-72
2021/05/09 02:58:57;;;;;;;6.13;3.17;;;;;;;9.96;94.04;100441.25;5074827;28;20414;-72
2021/05/09 03:01:23;;;;;;;6.00;3.35;;;;;;;9.97;93.87;100437.53;5075083;28;20075;-72
2021/05/09 03:03:49;;;;;;;4.70;2.85;;;;;;;9.96;94.27;100435.81;5093253;28;20446;-71
2021/05/09 03:06:15;;;;;;;5.60;3.30;;;;;;;9.93;94.74;100442.34;5074741;28;20048;-72
2021/05/09 03:08:41;;;;;;;6.53;3.75;;;;;;;9.93;94.82;100439.66;5092909;28;20032;-72
2021/05/09 03:11:07;;;;;;;5.05;2.92;;;;;;;9.89;96.04;100444.44;5092821;28;20427;-72
2021/05/09 03:13:33;;;;;;;4.07;3.13;;;;;;;9.87;96.45;100432.88;5074555;28;20155;-72
2021/05/09 03:16:02;;;;;;;5.47;3.13;;;;;;;9.83;97.08;100450.38;5092669;28;20169;-72
2021/05/09 03:18:28;;;;;;;5.38;3.60;;;;;;;9.82;97.39;100437.81;5092598;28;20046;-72
2021/05/09 03:20:54;;;;;;;5.00;3.28;;;;;;;9.81;97.64;100437.97;5092991;28;20059;-72
2021/05/09 03:23:20;;;;;;;6.18;3.35;;;;;;;9.78;97.96;100433.66;5092432;28;20484;-72
2021/05/09 03:25:46;;;;;;;6.60;3.47;;;;;;;9.75;98.33;100438.44;5092825;28;20040;-72
2021/05/09 03:28:13;;;;;;;4.70;3.08;;;;;;;9.72;98.66;100437.69;5092478;28;20052;-72
2021/05/09 03:30:39;;;;;;;4.82;2.83;;;;;;;9.67;99.01;100445.38;5092642;28;20051;-72
2021/05/09 03:33:07;;;;;;;7.68;3.30;;;;;;;9.64;99.77;100442.03;5092253;28;20059;-73
2021/05/09 03:35:34;;;;;;;10.18;3.65;;;;;;;9.58;100.00;100439.81;5092213;28;20255;-72
2021/05/09 03:38:01;;;;;;;5.43;3.33;;;;;;;9.52;100.00;100436.63;5092605;28;20407;-72
2021/05/09 03:40:27;;;;;;;8.10;3.33;;;;;;;9.52;100.00;100438.50;5092512;28;20093;-72
2021/05/09 03:42:53;;;;;;;5.38;3.30;;;;;;;9.46;100.00;100445.28;5092495;28;20407;-72
2021/05/09 03:45:19;;;;;;;5.72;3.45;;;;;;;9.43;100.00;100442.78;5073657;28;20051;-71
2021/05/09 03:47:45;;;;;;;7.00;3.58;;;;;;;9.43;100.00;100441.94;5092201;28;20059;-72
2021/05/09 03:50:12;;;;;;;7.03;3.50;;;;;;;9.42;100.00;100445.63;5092442;28;20044;-72
2021/05/09 03:52:38;;;;;;;5.78;3.28;;;;;;;9.38;100.00;100440.47;5091663;28;20051;-71
2021/05/09 03:55:05;;;;;;;7.28;3.22;;;;;;;9.34;100.00;100440.81;5091759;28;20058;-73
2021/05/09 03:57:31;;;;;;;5.95;3.70;;;;;;;9.33;100.00;100439.13;5091791;28;20124;-72
2021/05/09 03:59:57;;;;;;;6.40;3.58;;;;;;;9.35;100.00;100437.13;5092107;28;20388;-72
2021/05/09 04:02:23;;;;;;;4.80;3.08;;;;;;;9.37;100.00;100435.19;5092195;28;20499;-71
2021/05/09 04:04:48;;;;;;;5.53;3.17;;;;;;;9.38;100.00;100437.75;5073664;28;20059;-71
2021/05/09 04:07:15;;;;;;;6.50;3.30;;;;;;;9.41;100.00;100447.50;5091872;28;20144;-71
2021/05/09 04:09:41;;;;;;;7.43;3.00;;;;;;;9.40;100.00;100434.91;5073157;28;20396;-71
2021/05/09 04:12:08;;;;;;;8.82;3.88;;;;;;;9.46;100.00;100431.72;5092891;28;20051;-74
2021/05/09 04:14:34;;;;;;;4.28;3.22;;;;;;;9.47;100.00;100435.28;5091639;28;20040;-73
2021/05/09 04:17:00;;;;;;;5.25;3.03;;;;;;;9.50;100.00;100435.91;5073457;28;20051;-74
2021/05/09 04:19:26;;;;;;;4.80;3.13;;;;;;;9.52;100.00;100431.22;5091740;28;20067;-73
2021/05/09 04:21:52;;;;;;;6.75;2.95;;;;;;;9.58;100.00;100428.97;5091522;28;20097;-73
2021/05/09 04:24:19;;;;;;;6.07;3.03;;;;;;;9.70;100.00;100425.25;5091420;28;20050;-74
2021/05/09 04:26:45;;;;;;;8.80;3.20;;;;;;;9.78;100.00;100427.34;5091335;28;20078;-72
2021/05/09 04:29:10;;;;;;;6.10;3.35;;;;;;;9.87;100.00;100427.47;5091434;28;20044;-73
2021/05/09 04:31:36;;;;;;;6.68;3.28;;;;;;;9.95;100.00;100421.38;5091188;28;20085;-74
2021/05/09 04:34:02;;;;;;;4.85;2.97;;;;;;;10.02;100.00;100424.44;5090976;28;20067;-73
2021/05/09 04:36:28;;;;;;;6.25;3.05;;;;;;;10.10;100.00;100419.25;5073231;28;20063;-74
2021/05/09 04:38:54;;;;;;;7.18;3.17;;;;;;;10.16;100.00;100410.59;5090711;28;20032;-73
2021/05/09 04:41:21;;;;;;;5.15;3.05;;;;;;;10.21;100.00;100418.34;5091222;28;20036;-73
2021/05/09 04:43:47;;;;;;;8.10;2.75;;;;;;;10.24;100.00;100412.66;5091078;28;20055;-73
2021/05/09 04:46:13;;;;;;;3.83;2.90;;;;;;;10.25;100.00;100411.66;5090936;28;20044;-73
2021/05/09 04:48:39;;;;;;;4.03;2.83;;;;;;;10.28;100.00;100413.25;5072663;28;20052;-73
2021/05/09 04:51:05;;;;;;;4.10;3.08;;;;;;;10.37;100.00;100417.94;5091027;28;20120;-72
2021/05/09 04:53:33;;;;;;;5.15;3.10;;;;;;;10.41;100.00;100403.13;5091080;28;20118;-73
2021/05/09 04:56:00;;;;;;;7.28;2.88;;;;;;;10.50;100.00;100415.00;5091095;28;20507;-73
2021/05/09 04:58:28;;;;;;;6.40;2.97;;;;;;;10.54;100.00;100411.91;5090575;28;20048;-73
2021/05/09 05:00:58;;;;;;;5.75;2.97;;;;;;;10.60;100.00;100406.97;5091105;28;20063;-73
2021/05/09 05:03:24;;;;;;;4.70;2.92;;;;;;;10.64;100.00;100411.97;5090532;28;20416;-74
2021/05/09 05:05:50;;;;;;;5.05;3.10;;;;;;;10.72;100.00;100406.75;5090907;28;20040;-73
2021/05/09 05:08:15;;;;;;;7.50;3.05;;;;;;;10.78;100.00;100413.47;5090065;28;20480;-73
2021/05/09 05:10:41;;;;;;;4.97;3.00;;;;;;;10.88;100.00;100411.69;5090880;28;20074;-73
2021/05/09 05:13:17;;;;;;;4.07;2.80;;;;;;;10.97;100.00;100414.59;5090777;28;20131;-73
2021/05/09 05:15:46;;;;;;;6.30;2.70;;;;;;;11.05;99.69;100414.78;5090727;28;20064;-73
2021/05/09 05:18:12;;;;;;;4.15;2.65;;;;;;;11.16;99.70;100417.41;5090911;28;20048;-73
2021/05/09 05:20:38;;;;;;;3.28;2.70;;;;;;;11.27;99.37;100410.16;5072731;28;20055;-73
2021/05/09 05:23:03;;;;;;;5.28;2.70;;;;;;;11.37;98.77;100414.63;5072275;28;20541;-73
2021/05/09 05:25:29;;;;;;;6.40;3.10;;;;;;;11.50;98.27;100425.25;5072707;28;20036;-73
2021/05/09 05:27:55;;;;;;;4.78;2.88;;;;;;;11.62;98.14;100415.13;5090564;28;20089;-73
2021/05/09 05:30:22;;;;;;;5.60;3.20;;;;;;;11.73;97.89;100411.44;5090916;28;20113;-74
2021/05/09 05:32:48;;;;;;;5.38;3.13;;;;;;;11.79;97.29;100412.75;5090599;28;20095;-74
2021/05/09 05:35:14;;;;;;;7.97;2.95;;;;;;;11.83;97.20;100423.19;5090481;28;20047;-73
2021/05/09 05:37:41;;;;;;;24.42;4.25;;;;;;;12.01;96.58;100392.63;5090630;28;20048;-73
2021/05/09 05:40:08;;;;;;;69.28;57.35;;;;;;;12.31;96.04;100415.28;5090380;28;20415;-72
2021/05/09 05:42:34;;;;;;;77.03;5.18;;;;;;;12.58;93.83;100417.25;5090591;28;20052;-73
2021/05/09 05:45:00;;;;;;;364.88;273.05;;;;;;;12.92;91.91;100415.88;5090294;28;20113;-73
2021/05/09 05:47:26;;;;;;;545.10;372.88;;;;;;;13.38;90.07;100415.03;5090294;28;20040;-72
2021/05/09 05:49:55;;;;;;;395.70;231.30;;;;;;;13.79;86.57;100416.53;5090584;28;20086;-73
2021/05/09 05:52:21;;;;;;;954.97;698.30;;;;;;;14.00;84.48;100425.31;5090594;28;20510;-74
2021/05/09 05:54:47;;;;;;;342.25;285.25;;;;;;;14.26;84.57;100424.53;5067481;28;20044;-74
2021/05/09 05:57:13;;;;;;;1999.90;999.90;;;;;;;14.06;84.25;100434.75;5073723;28;20041;-73
2021/05/09 05:59:39;;;;;;;1999.90;999.90;;;;;;;14.23;82.99;100425.69;5070943;28;20091;-73
2021/05/09 06:02:05;;;;;;;1999.90;999.90;;;;;;;14.26;82.25;100429.13;5089797;28;20044;-74
2021/05/09 06:04:30;;;;;;;1999.90;999.90;;;;;;;14.35;80.76;100430.91;5085803;28;20048;-73
2021/05/09 06:06:57;;;;;;;1999.90;999.90;;;;;;;14.40;80.73;100420.38;5070007;28;20050;-73
2021/05/09 06:09:23;;;;;;;1999.90;910.17;;;;;;;14.55;79.84;100429.75;5070763;28;20063;-73
2021/05/09 06:11:49;;;;;;;1999.90;999.90;;;;;;;15.18;77.34;100430.56;5081107;28;20455;-71
2021/05/09 06:14:15;;;;;;;1999.90;999.90;;;;;;;15.68;74.51;100420.69;5055936;28;20041;-72
2021/05/09 06:16:41;;;;;;;1999.90;999.90;;;;;;;16.05;71.74;100416.72;5083248;28;20048;-72
2021/05/09 06:19:07;;;;;;;1999.90;888.20;;;;;;;15.51;72.40;100422.53;5091819;28;20047;-70
2021/05/09 06:21:33;;;;;;;1999.90;999.90;;;;;;;15.37;73.59;100418.53;5058555;28;20462;-72
2021/05/09 06:24:00;;;;;;;1999.90;828.47;;;;;;;14.98;74.13;100418.13;5073521;28;20052;-74
2021/05/09 06:26:25;;;;;;;1999.90;999.90;;;;;;;14.88;76.17;100418.22;5056121;28;20139;-71
2021/05/09 06:28:53;;;;;;;1999.90;999.90;;;;;;;14.60;77.03;100418.31;5086786;28;20592;-71
2021/05/09 06:31:19;;;;;;;1999.90;999.90;;;;;;;14.70;77.08;100415.56;5088581;28;20053;-70
2021/05/09 06:33:45;;;;;;;1999.90;999.90;;;;;;;14.94;75.45;100414.88;5084289;28;20089;-70
2021/05/09 06:36:11;;;;;;;1999.90;999.90;;;;;;;15.48;73.32;100414.63;5080606;28;20453;-70
2021/05/09 06:38:38;;;;;;;1999.90;999.90;;;;;;;15.63;71.76;100412.13;5087928;28;20052;-70
2021/05/09 06:41:05;;;;;;;1999.90;999.90;;;;;;;15.62;70.63;100406.81;5088605;28;20033;-70
2021/05/09 06:43:30;;;;;;;1999.90;999.90;;;;;;;15.80;70.49;100407.59;5074110;28;20060;-71
2021/05/09 06:45:56;;;;;;;1999.90;999.90;;;;;;;15.89;68.80;100409.34;5082305;28;20127;-71
2021/05/09 06:48:24;;;;;;;1999.90;999.90;;;;;;;16.18;68.53;100410.78;5093132;28;20048;-70
2021/05/09 06:50:50;;;;;;;1999.90;999.90;;;;;;;16.55;66.06;100394.84;5085966;28;20052;-71
2021/05/09 06:53:16;;;;;;;1999.90;999.90;;;;;;;16.43;67.23;100404.47;5080986;28;20078;-71
2021/05/09 06:55:43;;;;;;;1999.90;999.90;;;;;;;16.63;66.64;100399.47;5093520;28;20052;-70
2021/05/09 06:58:10;;;;;;;1999.90;999.90;;;;;;;16.65;64.60;100401.03;5090728;28;20494;-70
2021/05/09 07:00:36;;;;;;;1999.90;999.90;;;;;;;16.53;64.59;100402.41;5092130;28;20044;-70
2021/05/09 07:03:02;;;;;;;1999.90;999.90;;;;;;;16.37;65.33;100404.09;5067448;28;20051;-71
2021/05/09 07:05:28;;;;;;;1999.90;999.90;;;;;;;16.90;63.78;100404.63;5073362;28;20060;-71
2021/05/09 07:07:55;;;;;;;1999.90;999.90;;;;;;;17.06;62.79;100409.22;5072922;28;20029;-71
2021/05/09 07:10:22;;;;;;;1999.90;999.90;;;;;;;16.99;62.57;100416.41;5055698;28;20086;-71
2021/05/09 07:12:48;;;;;;;1999.90;999.90;;;;;;;17.12;62.52;100412.31;5075315;28;20463;-71
2021/05/09 07:15:20;;;;;;;1999.90;601.22;;;;;;;17.38;60.58;100407.41;5082477;28;20032;-71
2021/05/09 07:17:52;;;;;;;;;;;;;;;16.80;60.25;100403.06;5092154;28;20109;-70
2021/05/09 07:20:20;;;;;;;1999.90;405.40;;;;;;;17.20;61.28;100407.63;5073976;28;19920;-71
2021/05/09 07:22:52;;;;;;;1999.90;999.90;;;;;;;17.28;61.42;100403.19;5073281;28;20059;-71
2021/05/09 07:25:18;;;;;;;1999.90;999.90;;;;;;;17.97;59.58;100405.25;5079599;28;20482;-71
2021/05/09 07:27:44;;;;;;;1540.10;575.42;;;;;;;18.01;59.12;100391.00;5074248;28;20349;-71
2021/05/09 07:30:12;;;;;;;1999.90;999.90;;;;;;;18.37;57.48;100393.16;5091851;28;20512;-71
2021/05/09 07:32:38;;;;;;;1999.90;999.90;;;;;;;18.43;58.17;100394.31;5090177;28;20187;-71
2021/05/09 07:35:05;;;;;;;1942.65;817.33;;;;;;;18.34;57.97;100396.25;5071783;28;20044;-71
2021/05/09 07:37:31;;;;;;;1999.90;999.90;;;;;;;18.37;57.69;100389.53;5072324;28;20060;-71
2021/05/09 07:39:57;;;;;;;1999.90;999.90;;;;;;;19.12;55.85;100396.09;5072303;28;20044;-71
2021/05/09 07:42:23;;;;;;;1528.95;566.70;;;;;;;19.28;54.87;100385.91;5091501;28;20484;-72
2021/05/09 07:44:51;;;;;;;1999.90;999.90;;;;;;;19.09;55.13;100384.59;5074002;28;20044;-72
2021/05/09 07:47:16;;;;;;;1999.90;999.90;;;;;;;19.85;53.71;100385.19;5091784;28;20058;-71
2021/05/09 07:49:43;;;;;;;1999.90;999.90;;;;;;;19.48;53.95;100386.19;5074137;28;20040;-72
2021/05/09 07:52:09;;;;;;;1572.25;371.80;;;;;;;19.11;55.28;100380.63;5091809;28;20498;-72
2021/05/09 07:54:35;;;;;;;1999.90;999.90;;;;;;;19.15;55.07;100386.59;5091852;28;20048;-71
2021/05/09 07:57:01;;;;;;;1999.90;999.90;;;;;;;19.34;55.43;100383.25;5092023;28;20048;-71
2021/05/09 07:59:28;;;;;;;1999.90;999.90;;;;;;;20.24;53.51;100386.69;5073411;28;20453;-72
2021/05/09 08:01:54;;;;;;;1999.90;999.90;;;;;;;21.30;51.48;100373.09;5092021;28;20086;-71
2021/05/09 08:04:20;;;;;;;1999.90;999.90;;;;;;;22.01;49.29;100380.22;5091465;28;20047;-72
2021/05/09 08:06:46;;;;;;;1999.90;999.90;;;;;;;21.93;48.88;100372.09;5091872;28;20048;-72
2021/05/09 08:09:12;;;;;;;1999.90;999.90;;;;;;;22.06;48.30;100367.50;5091601;28;20392;-72
2021/05/09 08:11:38;;;;;;;1999.90;999.90;;;;;;;20.58;50.90;100379.56;5091255;28;20077;-71
2021/05/09 08:14:05;;;;;;;1999.90;999.90;;;;;;;19.92;52.34;100374.25;5073366;28;20044;-71
2021/05/09 08:16:30;;;;;;;1999.90;999.90;;;;;;;20.02;52.56;100374.81;5091610;28;20058;-72
2021/05/09 08:18:56;;;;;;;1999.90;999.90;;;;;;;20.61;51.42;100374.72;5091787;28;20467;-72
2021/05/09 08:21:22;;;;;;;1999.90;999.90;;;;;;;20.43;51.26;100369.69;5091515;28;20052;-72
2021/05/09 08:23:49;;;;;;;1999.90;999.90;;;;;;;21.32;49.61;100368.25;5091432;28;20052;-72
2021/05/09 08:26:15;;;;;;;1999.90;999.90;;;;;;;21.60;48.66;100373.69;5091321;28;20053;-72
2021/05/09 08:28:42;;;;;;;1999.90;999.90;;;;;;;21.38;48.68;100364.66;5091269;28;20051;-72
2021/05/09 08:31:10;;;;;;;1999.90;999.90;;;;;;;21.19;48.95;100360.72;5091276;28;20580;-72
2021/05/09 08:33:36;;;;;;;1999.90;999.90;;;;;;;21.01;50.27;100369.53;5091038;28;20071;-71
2021/05/09 08:36:02;;;;;;;1999.90;999.90;;;;;;;20.87;50.70;100357.56;5091264;28;20048;-71
2021/05/09 08:38:28;;;;;;;1999.90;999.90;;;;;;;20.56;50.95;100362.41;5090945;28;20059;-71
2021/05/09 08:40:55;;;;;;;1999.90;999.90;;;;;;;20.97;49.71;100362.72;5091047;28;20044;-71
2021/05/09 08:43:21;;;;;;;1999.90;999.90;;;;;;;21.45;48.97;100359.19;5089566;28;20044;-70
2021/05/09 08:45:47;;;;;;;1999.90;999.90;;;;;;;21.65;48.88;100353.78;5090784;28;20083;-71
2021/05/09 08:48:16;;;;;;;1999.90;999.90;;;;;;;21.38;49.52;100345.34;5088999;28;20045;-71
2021/05/09 08:50:42;;;;;;;1999.90;999.90;;;;;;;21.41;49.39;100343.00;5087789;28;20048;-71
2021/05/09 08:53:08;;;;;;;1999.90;999.90;;;;;;;20.99;49.88;100341.28;5089803;28;20036;-71
2021/05/09 08:55:34;;;;;;;1151.13;316.25;;;;;;;21.51;49.12;100325.22;5090713;28;20487;-72
2021/05/09 08:58:01;;;;;;;1999.90;999.90;;;;;;;21.44;49.23;100319.66;5090285;28;20052;-72
2021/05/09 09:00:27;;;;;;;1999.90;999.90;;;;;;;22.37;47.83;100341.19;5075069;28;20056;-71
2021/05/09 09:02:53;;;;;;;1999.90;999.90;;;;;;;22.40;46.64;100334.38;5065226;28;20101;-71
2021/05/09 09:05:34;;;;;;;1999.90;999.90;;;;;;;23.06;45.02;100338.13;5088589;28;20491;-71
2021/05/09 09:07:59;;;;;;;1999.90;999.90;;;;;;;23.50;44.47;100344.84;5071405;28;20504;-71
2021/05/09 09:10:30;;;;;;;1999.90;999.90;;;;;;;23.73;43.49;100338.78;5077621;28;20114;-72
2021/05/09 09:12:59;;;;;;;1999.90;999.90;;;;;;;24.65;42.25;100339.47;5090814;28;20052;-71
2021/05/09 09:15:45;;;;;;;1977.68;574.95;;;;;;;24.41;40.75;100325.34;5083069;28;20083;-72
2021/05/09 09:18:25;;;;;;;1999.90;999.90;;;;;;;24.18;40.42;100335.09;5070398;28;20131;-71
2021/05/09 09:20:50;;;;;;;1999.90;999.90;;;;;;;24.04;41.91;100336.31;5085563;28;20067;-72
2021/05/09 09:23:16;;;;;;;;;;;;;;;24.16;41.21;100337.28;5090237;28;20074;-72
2021/05/09 09:25:42;;;;;;;;;;;;;;;24.30;40.32;100318.59;5078351;28;20177;-73
2021/05/09 09:28:08;;;;;;;;;;;;;;;25.17;38.99;100331.66;5072952;28;19921;-72
2021/05/09 09:30:47;;;;;;;;;;;;;;;25.65;38.08;100337.56;5082858;28;19949;-74
2021/05/09 09:33:14;;;;;;;;;;;;;;;25.37;38.41;100325.94;5085080;28;19920;-71
2021/05/09 09:35:41;;;;;;;;;;;;;;;25.29;38.59;100328.13;5088942;28;19969;-71
2021/05/09 09:38:20;;;;;;;;;;;;;;;24.11;39.75;100317.69;5089850;28;19920;-72
2021/05/09 09:41:00;;;;;;;;;;;;;;;24.71;40.08;100322.75;5069094;28;19921;-72
2021/05/09 09:43:26;;;;;;;;;;;;;;;24.97;37.97;100306.06;5069657;28;19940;-72
2021/05/09 09:45:53;;;;;;;;;;;;;;;25.42;38.42;100319.66;5070398;28;19921;-70
2021/05/09 09:48:19;;;;;;;;;;;;;;;25.37;38.62;100316.75;5070330;28;19920;-71
2021/05/09 09:50:46;;;;;;;;;;;;;;;25.65;38.35;100321.72;5070452;28;19928;-71
2021/05/09 09:53:37;;;;;;;;;;;;;;;25.47;36.90;100314.25;5069817;28;19927;-72
2021/05/09 09:56:04;;;;;;;;;;;;;;;25.40;37.83;100317.13;5054476;28;20318;-72
2021/05/09 09:58:40;;;;;;;;;;;;;;;25.82;37.47;100299.69;5055715;28;19920;-72
2021/05/09 10:01:07;;;;;;;;;;;;;;;25.70;37.15;100319.09;5074192;28;19950;-72
2021/05/09 10:03:33;;;;;;;;;;;;;;;25.41;38.17;100309.63;5073363;28;19932;-72
2021/05/09 10:06:00;;;;;;;;;;;;;;;25.19;37.07;100320.34;5065641;28;19924;-72
2021/05/09 10:08:25;;;;;;;;;;;;;;;24.95;37.65;100310.97;5077713;28;20011;-69
2021/05/09 10:10:51;;;;;;;;;;;;;;;24.92;37.83;100308.69;5092130;28;20458;-71
2021/05/09 10:13:18;;;;;;;;;;;;;;;24.89;37.14;100302.53;5081458;28;19955;-70
2021/05/09 10:15:44;;;;;;;;;;;;;;;25.18;37.68;100304.78;5093517;28;19935;-70
2021/05/09 10:18:11;;;;;;;;;;;;;;;25.37;36.76;100308.41;5079140;28;19920;-71
2021/05/09 10:20:37;;;;;;;;;;;;;;;25.61;37.78;100300.19;5089817;28;19924;-71
2021/05/09 10:23:04;;;;;;;;;;;;;;;25.71;37.63;100290.22;5093611;28;19920;-71
2021/05/09 10:25:43;;;;;;;;;;;;;;;25.45;37.37;100296.97;5076248;28;19920;-70
2021/05/09 10:28:09;;;;;;;;;;;;;;;25.27;37.55;100277.50;5074398;28;19936;-70
2021/05/09 10:30:42;;;;;;;;;;;;;;;25.74;39.28;100286.94;5079224;28;19931;-71
2021/05/09 10:33:08;;;;;;;;;;;;;;;26.60;36.91;100285.81;5093489;28;19955;-71
2021/05/09 10:35:36;;;;;;;1999.90;999.90;;;;;;;26.52;37.03;100275.06;5087043;28;20465;-71
2021/05/09 10:38:07;;;;;;;1999.90;999.90;;;;;;;26.40;36.16;100281.47;5071833;28;20423;-71
2021/05/09 10:40:36;;;;;;;1999.90;999.90;;;;;;;26.98;36.11;100281.72;5081107;28;20422;-71
2021/05/09 10:43:29;;;;;;;1999.90;721.50;;;;;;;27.02;34.66;100279.31;5091842;28;20990;-71
2021/05/09 10:45:55;;;;;;;1999.90;999.90;;;;;;;27.05;34.83;100276.84;5084731;28;20437;-71
2021/05/09 10:48:34;;;;;;;1999.90;999.90;;;;;;;27.36;34.59;100266.34;5091553;28;20414;-71
2021/05/09 10:51:27;;;;;;;;;;;;;;;24.98;37.37;100260.59;5083752;28;20824;-71
2021/05/09 10:53:54;;;;;;;;;;;;;;;25.65;40.13;100262.53;5092727;28;19973;-71
2021/05/09 10:56:33;;;;;;;;;;;;;;;26.34;38.54;100257.38;5073176;28;19920;-71
2021/05/09 10:58:59;;;;;;;;;;;;;;;27.02;37.06;100273.72;5085284;28;19965;-71
2021/05/09 11:01:25;;;;;;;;;;;;;;;26.51;35.58;100271.44;5090733;28;19920;-72
2021/05/09 11:03:52;;;;;;;;;;;;;;;26.67;34.20;100247.59;5076862;28;19927;-71
2021/05/09 11:06:19;;;;;;;;;;;;;;;27.17;34.07;100262.91;5071893;28;19921;-71
2021/05/09 11:09:02;;;;;;;;;;;;;;;27.30;35.79;100267.34;5074977;28;19962;-71
2021/05/09 11:11:43;;;;;;;;;;;;;;;26.85;35.12;100263.31;5092828;28;19942;-72
2021/05/09 11:14:19;;;;;;;;;;;;;;;25.92;36.92;100256.56;5086843;28;20352;-72
2021/05/09 11:16:56;;;;;;;;;;;;;;;26.36;34.84;100268.25;5072829;28;20269;-72
2021/05/09 11:19:24;;;;;;;;;;;;;;;26.66;36.63;100250.63;5054468;28;19949;-72
2021/05/09 11:21:51;;;;;;;;;;;;;;;26.88;35.00;100251.72;5089082;28;19924;-71
2021/05/09 11:24:18;;;;;;;;;;;;;;;26.72;33.78;100246.88;5081052;28;19974;-71
2021/05/09 11:26:45;;;;;;;;;;;;;;;26.94;34.29;100237.88;5078001;28;19969;-70